Time;durP1;ratioP1;P1;durP2;ratioP2;P2;SDS_P1;SDS_P2;PMS_P1;PMS_P2;Temp;Humidity;BMP_temperature;BMP_pressure;BME280_temperature;BME280_humidity;BME280_pressure;Samples;Min_cycle;Max_cycle;Signal;HPM_P1;HPM_P2
2022/11/01 00:01:28;;;;;;;17.33;6.30;;;;;;;20.13;100.00;100679.59;5001463;28;20038;-54
2022/11/01 00:03:53;;;;;;;;;;;;;;;20.01;100.00;100667.06;5001411;28;20084;-51
2022/11/01 00:06:19;;;;;;;18.63;7.50;;;;;;;19.91;100.00;100681.38;5000819;28;19918;-51
2022/11/01 00:08:44;;;;;;;19.95;6.82;;;;;;;19.99;100.00;100679.25;4998199;28;20050;-51
2022/11/01 00:11:13;;;;;;;14.20;5.97;;;;;;;19.97;100.00;100674.09;4998680;28;20106;-50
2022/11/01 00:13:39;;;;;;;15.57;7.30;;;;;;;19.99;100.00;100687.38;5002133;28;20178;-51
2022/11/01 00:16:05;;;;;;;25.10;7.25;;;;;;;20.11;100.00;100674.44;4996875;28;20026;-51
2022/11/01 00:18:31;;;;;;;13.55;6.85;;;;;;;19.94;100.00;100669.16;5001110;28;20089;-51
2022/11/01 00:20:56;;;;;;;17.88;7.03;;;;;;;20.02;100.00;100659.72;4999384;28;20043;-49
2022/11/01 00:23:21;;;;;;;15.77;6.23;;;;;;;19.92;100.00;100645.03;5000985;28;20102;-50
2022/11/01 00:25:47;;;;;;;18.83;7.20;;;;;;;19.97;100.00;100646.94;5000587;28;20026;-49
2022/11/01 00:28:13;;;;;;;16.80;6.60;;;;;;;19.71;100.00;100659.50;4999774;28;20046;-55
2022/11/01 00:30:39;;;;;;;17.53;7.47;;;;;;;19.77;100.00;100648.44;5000294;28;20085;-50
2022/11/01 00:33:05;;;;;;;;;;;;;;;19.88;100.00;100649.31;5000463;28;20027;-51
2022/11/01 00:35:32;;;;;;;14.50;6.53;;;;;;;19.62;100.00;100641.03;5001169;28;19950;-51
2022/11/01 00:37:58;;;;;;;20.77;7.23;;;;;;;19.48;100.00;100650.66;4998590;28;20031;-51
2022/11/01 00:40:24;;;;;;;15.45;7.25;;;;;;;19.40;100.00;100638.41;5010790;28;20057;-52
2022/11/01 00:42:50;;;;;;;20.90;7.13;;;;;;;20.13;100.00;100626.13;5002771;28;20043;-53
2022/11/01 00:45:16;;;;;;;22.83;7.50;;;;;;;20.19;100.00;100622.34;5012980;28;20034;-51
2022/11/01 00:47:41;;;;;;;17.33;7.82;;;;;;;20.01;100.00;100618.19;5008355;28;20039;-50
2022/11/01 00:50:07;;;;;;;17.83;6.97;;;;;;;20.06;100.00;100615.50;5001517;28;20102;-51
2022/11/01 00:52:33;;;;;;;19.10;6.60;;;;;;;20.03;100.00;100612.50;5011493;28;20043;-52
2022/11/01 00:54:59;;;;;;;18.13;7.75;;;;;;;20.26;100.00;100613.13;5002034;28;20132;-53
2022/11/01 00:57:24;;;;;;;27.42;7.43;;;;;;;20.17;100.00;100616.34;5007946;28;20040;-52
2022/11/01 00:59:50;;;;;;;18.38;6.75;;;;;;;20.60;100.00;100618.91;5005058;28;20053;-51
2022/11/01 01:02:16;;;;;;;19.52;7.07;;;;;;;21.00;100.00;100626.63;5000072;28;20159;-51
2022/11/01 01:04:42;;;;;;;15.05;6.95;;;;;;;20.84;100.00;100618.44;5005922;28;20038;-47
2022/11/01 01:07:08;;;;;;;;;;;;;;;20.94;100.00;100612.22;5002759;28;20054;-53
2022/11/01 01:09:34;;;;;;;19.80;6.30;;;;;;;20.46;100.00;100615.91;5010545;28;19923;-52
2022/11/01 01:12:00;;;;;;;14.27;5.97;;;;;;;20.51;100.00;100606.97;5002038;28;20058;-53
2022/11/01 01:14:27;;;;;;;16.13;6.85;;;;;;;20.33;100.00;100606.38;5006754;28;20044;-54
2022/11/01 01:16:52;;;;;;;;;;;;;;;20.63;100.00;100598.56;4996381;28;20022;-50
2022/11/01 01:19:18;;;;;;;14.77;6.20;;;;;;;20.67;100.00;100607.00;5013822;28;19914;-52
2022/11/01 01:21:44;;;;;;;11.88;6.00;;;;;;;20.70;100.00;100588.25;4999015;28;20090;-52
2022/11/01 01:24:09;;;;;;;17.30;6.10;;;;;;;20.73;100.00;100595.84;5011367;28;20089;-51
2022/11/01 01:26:35;;;;;;;16.05;6.18;;;;;;;20.67;100.00;100599.66;5007829;28;20034;-53
2022/11/01 01:29:00;;;;;;;16.90;6.95;;;;;;;20.85;100.00;100594.81;4995727;28;20069;-51
2022/11/01 01:31:26;;;;;;;13.02;6.32;;;;;;;20.96;100.00;100595.63;5010009;28;20040;-49
2022/11/01 01:33:51;;;;;;;19.15;6.45;;;;;;;21.01;100.00;100601.06;5011194;28;20039;-51
2022/11/01 01:36:17;;;;;;;14.30;6.88;;;;;;;20.53;100.00;100593.94;4999700;28;20030;-52
2022/11/01 01:38:42;;;;;;;15.07;6.38;;;;;;;20.50;100.00;100583.59;5006353;28;20063;-55
2022/11/01 01:43:52;;;;;;;17.53;6.40;;;;;;;20.64;100.00;100600.19;5000822;28;20022;-52
2022/11/01 01:46:18;;;;;;;12.63;5.70;;;;;;;20.67;100.00;100586.06;5004446;28;20107;-50
2022/11/01 01:48:47;;;;;;;12.82;6.35;;;;;;;20.59;100.00;100592.03;5002217;28;20067;-51
2022/11/01 01:51:17;;;;;;;15.73;6.40;;;;;;;22.05;100.00;100594.38;5005210;28;20039;-50
2022/11/01 01:53:53;;;;;;;15.20;5.60;;;;;;;21.88;100.00;100588.44;5006586;28;20074;-48
2022/11/01 01:56:26;;;;;;;15.83;6.00;;;;;;;21.42;100.00;100592.06;4999394;28;20050;-49
2022/11/01 01:59:01;;;;;;;15.73;5.77;;;;;;;21.59;100.00;100589.06;4999407;28;20104;-52
2022/11/01 02:01:28;;;;;;;15.77;5.53;;;;;;;21.68;100.00;100594.75;5004817;28;20065;-53
2022/11/01 02:03:53;;;;;;;15.13;5.47;;;;;;;21.39;100.00;100584.44;5000462;28;20105;-53
2022/11/01 02:06:22;;;;;;;12.48;5.63;;;;;;;20.74;100.00;100583.88;5001980;28;20035;-52
2022/11/01 02:09:00;;;;;;;18.07;5.80;;;;;;;21.16;100.00;100583.94;5001740;28;20104;-48
2022/11/01 02:11:26;;;;;;;11.60;4.83;;;;;;;21.44;100.00;100589.88;4998064;28;20038;-50
2022/11/01 02:13:52;;;;;;;10.75;4.97;;;;;;;21.56;100.00;100597.75;5005674;28;20034;-51
2022/11/01 02:16:36;;;;;;;13.35;4.47;;;;;;;22.02;100.00;100583.22;5006521;28;20102;-51
2022/11/01 02:19:12;;;;;;;17.33;5.23;;;;;;;21.93;100.00;100582.97;5010129;28;20042;-50
2022/11/01 02:22:13;;;;;;;15.02;5.95;;;;;;;22.14;100.00;100593.78;5000666;28;20057;-53
2022/11/01 02:24:58;;;;;;;10.43;5.20;;;;;;;21.46;100.00;100593.97;4996781;28;20050;-50
2022/11/01 02:27:49;;;;;;;12.03;5.40;;;;;;;21.85;100.00;100589.81;5004286;28;20026;-51
2022/11/01 02:30:20;;;;;;;11.20;4.90;;;;;;;21.96;100.00;100587.88;4999092;28;20030;-50
2022/11/01 02:33:09;;;;;;;11.60;5.07;;;;;;;21.77;100.00;100596.63;5008790;28;20030;-52
2022/11/01 02:35:53;;;;;;;11.57;5.07;;;;;;;22.02;100.00;100588.66;4999312;28;20090;-52
2022/11/01 02:38:37;;;;;;;11.53;5.00;;;;;;;22.17;100.00;100599.50;4999422;28;20049;-50
2022/11/01 02:41:24;;;;;;;9.27;5.00;;;;;;;21.87;100.00;100603.94;5008600;28;20062;-47
2022/11/01 02:43:58;;;;;;;9.30;4.57;;;;;;;21.97;100.00;100602.31;5010416;28;20155;-49
2022/11/01 02:49:14;;;;;;;13.10;5.05;;;;;;;22.01;100.00;100595.19;5016700;28;20103;-47
2022/11/01 02:51:43;;;;;;;21.53;5.87;;;;;;;21.87;100.00;100603.16;5007384;28;20050;-48
2022/11/01 02:54:19;;;;;;;10.93;4.60;;;;;;;22.17;100.00;100599.50;5010334;28;20055;-49
2022/11/01 02:56:44;;;;;;;9.50;4.50;;;;;;;21.85;100.00;100606.13;5007503;28;20035;-51
2022/11/01 02:59:21;;;;;;;16.42;5.18;;;;;;;21.83;100.00;100591.19;5004349;28;20041;-51
2022/11/01 03:01:58;;;;;;;12.73;5.75;;;;;;;22.10;100.00;100596.25;5007209;28;20038;-53
2022/11/01 03:04:24;;;;;;;11.87;4.50;;;;;;;21.98;100.00;100606.66;5003198;28;20045;-49
2022/11/01 03:06:55;;;;;;;17.10;4.68;;;;;;;22.25;100.00;100592.63;4999811;28;20031;-50
2022/11/01 03:09:21;;;;;;;13.13;4.77;;;;;;;21.32;100.00;100592.88;5008808;28;20029;-49
2022/11/01 03:12:05;;;;;;;17.13;4.55;;;;;;;21.65;100.00;100601.59;5006378;28;20026;-49
2022/11/01 03:14:41;;;;;;;13.70;4.67;;;;;;;21.99;100.00;100595.47;5012125;28;20043;-50
2022/11/01 03:17:32;;;;;;;13.13;4.28;;;;;;;21.55;100.00;100590.66;5006055;28;20069;-53
2022/11/01 03:20:05;;;;;;;16.33;5.13;;;;;;;21.72;100.00;100602.09;5000113;28;20041;-53
2022/11/01 03:22:33;;;;;;;8.20;4.07;;;;;;;21.73;100.00;100616.53;4998348;28;20421;-52
2022/11/01 03:25:37;;;;;;;13.90;4.70;;;;;;;21.64;100.00;100605.38;5003063;28;20081;-52
2022/11/01 03:28:00;;;;;;;15.33;4.93;;;;;;;21.98;100.00;100615.63;5000924;28;20034;-51
2022/11/01 03:30:28;;;;;;;8.07;4.00;;;;;;;21.72;100.00;100634.75;5003979;28;20106;-51
2022/11/01 03:32:56;;;;;;;13.97;3.97;;;;;;;21.48;100.00;100635.31;5004717;28;20038;-51
2022/11/01 03:35:29;;;;;;;15.83;4.97;;;;;;;21.75;100.00;100638.84;5004353;28;20048;-48
2022/11/01 03:37:59;;;;;;;15.60;4.70;;;;;;;21.11;100.00;100651.91;5001482;28;20038;-52
2022/11/01 03:40:27;;;;;;;15.37;3.70;;;;;;;21.31;100.00;100672.84;5005340;28;20061;-49
2022/11/01 03:43:00;;;;;;;8.83;3.40;;;;;;;21.51;100.00;100655.72;5005603;28;20038;-55
2022/11/01 03:45:29;;;;;;;13.47;3.63;;;;;;;21.95;100.00;100664.38;5005355;28;20053;-53
2022/11/01 03:47:54;;;;;;;10.90;3.40;;;;;;;21.60;100.00;100656.78;5003398;28;20039;-49
2022/11/01 03:50:22;;;;;;;10.32;3.47;;;;;;;21.78;100.00;100673.66;5007551;28;20042;-52
2022/11/01 03:52:48;;;;;;;8.73;3.00;;;;;;;21.91;100.00;100675.81;5004690;28;20053;-52
2022/11/01 03:55:18;;;;;;;5.55;2.45;;;;;;;21.57;100.00;100681.81;4999377;28;20053;-52
2022/11/01 03:57:57;;;;;;;4.10;1.30;;;;;;;21.45;100.00;100697.59;5001264;28;20031;-51
2022/11/01 04:00:26;;;;;;;3.47;1.23;;;;;;;21.57;100.00;100708.22;5004543;28;20050;-50
2022/11/01 04:02:53;;;;;;;4.30;1.20;;;;;;;20.89;100.00;100683.69;5006025;28;20042;-49
2022/11/01 04:05:20;;;;;;;6.30;2.03;;;;;;;20.93;100.00;100705.72;5002070;28;20027;-53
2022/11/01 04:07:46;;;;;;;2.83;1.30;;;;;;;21.30;100.00;100715.56;5005280;28;20035;-53
2022/11/01 04:10:12;;;;;;;3.50;0.95;;;;;;;21.48;100.00;100725.09;5000981;28;20060;-52
2022/11/01 04:12:39;;;;;;;5.93;1.05;;;;;;;20.19;100.00;100728.22;5009089;28;20058;-53
2022/11/01 04:20:54;;;;;;;2.13;0.87;;;;;;;20.12;100.00;100760.22;4999389;28;20052;-51
2022/11/01 04:23:20;;;;;;;3.92;1.40;;;;;;;20.20;100.00;100761.63;5003537;28;20065;-50
2022/11/01 04:25:46;;;;;;;4.88;0.90;;;;;;;20.29;100.00;100768.19;5004294;28;20042;-51
2022/11/01 04:28:12;;;;;;;2.85;0.80;;;;;;;20.05;100.00;100767.75;5007240;28;20056;-49
2022/11/01 04:30:38;;;;;;;0.70;0.50;;;;;;;20.34;100.00;100772.84;5002561;28;20057;-49
2022/11/01 04:33:04;;;;;;;4.57;0.90;;;;;;;20.12;100.00;100776.50;5000352;28;20026;-50
2022/11/01 04:35:29;;;;;;;4.57;1.17;;;;;;;19.83;100.00;100782.22;5004678;28;20039;-52
2022/11/01 04:37:56;;;;;;;5.77;1.10;;;;;;;19.77;100.00;100811.22;5005565;28;20118;-51
2022/11/01 04:40:21;;;;;;;4.43;0.70;;;;;;;19.91;100.00;100795.34;5004226;28;20030;-52
2022/11/01 04:42:47;;;;;;;5.10;0.90;;;;;;;20.05;100.00;100803.03;5005697;28;20039;-50
2022/11/01 04:45:13;;;;;;;1.75;0.73;;;;;;;19.62;100.00;100813.78;5001275;28;20042;-51
2022/11/01 04:47:38;;;;;;;5.27;0.83;;;;;;;19.55;100.00;100808.56;5003712;28;20058;-51
2022/11/01 04:50:04;;;;;;;4.57;0.90;;;;;;;19.55;100.00;100824.03;5003089;28;20034;-51
2022/11/01 04:52:29;;;;;;;4.43;1.05;;;;;;;19.48;100.00;100807.97;5005943;28;20101;-50
2022/11/01 04:54:55;;;;;;;1.33;0.97;;;;;;;19.30;100.00;100823.50;5004871;28;20094;-49
2022/11/01 04:57:23;;;;;;;4.05;0.90;;;;;;;19.25;100.00;100831.59;5003601;28;20257;-50
2022/11/01 04:59:52;;;;;;;2.40;0.80;;;;;;;19.79;100.00;100838.06;5004676;28;20061;-54
2022/11/01 05:02:19;;;;;;;6.47;1.00;;;;;;;19.53;100.00;100827.00;5011933;28;20041;-53
2022/11/01 05:04:45;;;;;;;5.23;0.70;;;;;;;19.27;100.00;100850.31;5006562;28;20030;-49
2022/11/01 05:07:11;;;;;;;4.30;1.08;;;;;;;19.57;100.00;100844.38;5007458;28;20045;-48
2022/11/01 05:09:37;;;;;;;6.80;1.17;;;;;;;19.65;100.00;100855.88;5002318;28;20062;-53
2022/11/01 05:12:03;;;;;;;3.47;0.70;;;;;;;19.73;100.00;100852.69;5001216;28;20108;-49
2022/11/01 05:14:29;;;;;;;3.13;0.80;;;;;;;19.90;100.00;100847.97;5004327;28;20269;-49
2022/11/01 05:16:55;;;;;;;0.80;0.70;;;;;;;20.06;100.00;100862.50;5002060;28;20053;-49
2022/11/01 05:19:20;;;;;;;;;;;;;;;19.65;100.00;100872.94;5000079;28;20037;-54
2022/11/01 05:21:46;;;;;;;3.83;0.83;;;;;;;19.96;100.00;100865.16;5000744;28;19914;-50
2022/11/01 05:24:12;;;;;;;6.25;1.02;;;;;;;19.80;100.00;100877.69;5004556;28;20045;-52
2022/11/01 05:26:37;;;;;;;2.45;0.70;;;;;;;19.57;100.00;100879.66;5007610;28;20071;-47
2022/11/01 05:29:03;;;;;;;5.33;1.07;;;;;;;19.44;100.00;100891.72;5004668;28;20037;-48
2022/11/01 05:31:28;;;;;;;2.05;0.70;;;;;;;19.51;100.00;100879.88;5010673;28;20295;-49
2022/11/01 05:33:54;;;;;;;3.83;0.63;;;;;;;19.12;100.00;100873.44;5002162;28;20043;-51
2022/11/01 05:36:19;;;;;;;8.23;1.60;;;;;;;18.94;100.00;100885.41;4998981;28;20046;-51
2022/11/01 05:38:45;;;;;;;6.70;1.10;;;;;;;19.42;100.00;100887.63;5000971;28;20063;-51
2022/11/01 05:41:10;;;;;;;5.07;1.00;;;;;;;19.16;100.00;100873.78;5004732;28;20037;-49
2022/11/01 05:43:35;;;;;;;5.47;0.80;;;;;;;19.13;100.00;100874.25;5003252;28;20070;-54
2022/11/01 05:46:03;;;;;;;6.90;1.20;;;;;;;19.13;100.00;100895.94;4996818;28;20262;-51
2022/11/01 05:48:29;;;;;;;11.60;1.30;;;;;;;18.67;100.00;100888.78;5000752;28;20031;-51
2022/11/01 05:50:54;;;;;;;9.35;1.42;;;;;;;18.80;100.00;100895.78;4995449;28;20305;-49
2022/11/01 05:53:20;;;;;;;4.80;1.30;;;;;;;18.81;100.00;100883.88;5002793;28;20081;-51
2022/11/01 05:55:45;;;;;;;7.57;1.67;;;;;;;19.12;100.00;100929.53;4996014;28;20043;-49
2022/11/01 05:58:12;;;;;;;4.10;1.00;;;;;;;18.88;100.00;100919.72;5000432;28;20081;-47
2022/11/01 06:00:38;;;;;;;8.40;1.93;;;;;;;18.80;100.00;100922.03;4997027;28;20273;-49
2022/11/01 06:03:04;;;;;;;3.55;1.27;;;;;;;18.70;100.00;100906.44;4996609;28;20123;-52
2022/11/01 06:05:30;;;;;;;6.72;1.20;;;;;;;18.68;100.00;100898.56;4990842;28;20038;-54
2022/11/01 06:07:56;;;;;;;5.35;1.20;;;;;;;18.61;100.00;100914.16;4992892;28;20031;-53
2022/11/01 06:10:21;;;;;;;7.70;1.60;;;;;;;18.27;100.00;100930.44;4994600;28;20081;-52
2022/11/01 06:12:47;;;;;;;12.13;1.60;;;;;;;18.21;100.00;100924.09;4995291;28;20027;-50
2022/11/01 06:15:12;;;;;;;9.68;1.80;;;;;;;18.34;100.00;100955.44;5000781;28;20047;-54
2022/11/01 06:17:38;;;;;;;8.90;1.10;;;;;;;18.47;100.00;100946.19;4997536;28;20053;-54
2022/11/01 06:20:04;;;;;;;14.77;1.70;;;;;;;18.60;100.00;100942.31;4998246;28;20031;-55
2022/11/01 06:22:29;;;;;;;;;;;;;;;19.65;98.29;100942.69;4996072;28;20103;-51
2022/11/01 06:24:55;;;;;;;9.63;1.70;;;;;;;18.49;100.00;100974.66;4999985;28;19917;-55
2022/11/01 06:27:20;;;;;;;16.10;2.27;;;;;;;18.34;100.00;100956.28;4992505;28;20039;-54
2022/11/01 06:29:46;;;;;;;8.45;1.27;;;;;;;18.86;100.00;100967.09;4998837;28;20043;-49
2022/11/01 06:32:12;;;;;;;9.07;1.88;;;;;;;18.02;100.00;100939.75;4998988;28;20031;-55
2022/11/01 06:34:37;;;;;;;15.20;1.83;;;;;;;18.18;100.00;100960.59;4997705;28;20031;-55
2022/11/01 06:37:03;;;;;;;8.32;2.28;;;;;;;17.93;100.00;101006.91;5008056;28;20112;-53
2022/11/01 06:39:28;;;;;;;6.75;1.38;;;;;;;18.03;100.00;100990.91;5004875;28;20046;-54
2022/11/01 06:41:54;;;;;;;7.90;1.35;;;;;;;18.06;100.00;100981.47;4994856;28;20038;-53
2022/11/01 06:44:20;;;;;;;7.30;1.50;;;;;;;18.15;100.00;100965.69;5003517;28;20058;-55
2022/11/01 06:46:45;;;;;;;6.40;1.20;;;;;;;18.18;100.00;100971.41;4991953;28;20039;-54
2022/11/01 06:49:11;;;;;;;6.95;1.40;;;;;;;18.05;100.00;100972.53;4998319;28;20040;-51
2022/11/01 06:51:36;;;;;;;15.23;2.13;;;;;;;18.15;100.00;101003.56;4995165;28;20041;-55
2022/11/01 06:54:02;;;;;;;14.18;1.60;;;;;;;17.82;100.00;100978.84;4997457;28;20066;-54
2022/11/01 06:56:27;;;;;;;12.38;1.73;;;;;;;17.89;100.00;100966.00;4996690;28;20073;-51
2022/11/01 06:58:53;;;;;;;14.50;1.95;;;;;;;17.78;100.00;100996.63;5000333;28;20042;-53
2022/11/01 07:01:20;;;;;;;10.77;2.00;;;;;;;17.75;100.00;100987.09;4996284;28;20030;-57
2022/11/01 07:03:50;;;;;;;15.50;2.20;;;;;;;17.91;100.00;100998.22;4997145;28;20027;-57
2022/11/01 07:06:17;;;;;;;8.10;1.80;;;;;;;17.88;100.00;100996.81;4996750;28;20364;-55
2022/11/01 07:08:42;;;;;;;11.83;2.53;;;;;;;18.08;100.00;100997.47;4996571;28;20268;-51
2022/11/01 07:11:08;;;;;;;10.03;2.20;;;;;;;17.70;100.00;101041.09;4999549;28;20269;-55
2022/11/01 07:13:35;;;;;;;9.60;1.83;;;;;;;17.57;100.00;101025.94;4997990;28;20300;-56
2022/11/01 07:16:02;;;;;;;14.83;2.03;;;;;;;17.52;100.00;101035.81;4985962;28;20023;-55
2022/11/01 07:18:31;;;;;;;12.00;1.90;;;;;;;17.90;100.00;101034.47;4993652;28;20267;-52
2022/11/01 07:20:56;;;;;;;19.65;2.85;;;;;;;17.99;100.00;101037.56;4985820;28;20276;-55
2022/11/01 07:23:22;;;;;;;8.13;1.70;;;;;;;18.08;100.00;101060.53;4996138;28;20039;-54
2022/11/01 07:25:51;;;;;;;15.10;1.95;;;;;;;18.03;100.00;101042.31;4985369;28;20280;-55
2022/11/01 07:28:17;;;;;;;11.70;2.33;;;;;;;17.92;100.00;101059.38;4986821;28;20055;-55
2022/11/01 07:30:45;;;;;;;8.77;2.30;;;;;;;18.25;100.00;101057.06;4990572;28;20268;-53
2022/11/01 07:33:10;;;;;;;9.77;2.20;;;;;;;18.02;100.00;101083.16;4990982;28;20303;-55
2022/11/01 07:35:37;;;;;;;15.93;2.53;;;;;;;17.91;100.00;101069.38;4987442;28;20264;-55
2022/11/01 07:38:03;;;;;;;12.77;2.60;;;;;;;17.68;100.00;101094.59;4987117;28;20273;-58
2022/11/01 07:40:28;;;;;;;10.50;1.67;;;;;;;18.16;100.00;101081.00;4993808;28;20037;-57
2022/11/01 07:42:59;;;;;;;13.77;2.33;;;;;;;17.97;100.00;101077.59;4997201;28;20048;-56
2022/11/01 07:45:28;;;;;;;5.97;1.90;;;;;;;18.02;100.00;101077.75;5005463;28;20050;-57
2022/11/01 07:48:16;;;;;;;14.27;1.80;;;;;;;18.25;100.00;101081.44;4998052;28;20293;-54
2022/11/01 07:50:42;;;;;;;19.03;3.03;;;;;;;17.95;100.00;101101.34;5007265;28;20292;-51
2022/11/01 07:53:12;;;;;;;13.33;2.80;;;;;;;18.01;100.00;101084.19;5007682;28;20328;-56
2022/11/01 07:55:38;;;;;;;8.57;1.83;;;;;;;18.66;100.00;101089.50;5003899;28;20307;-54
2022/11/01 07:58:05;;;;;;;13.32;2.03;;;;;;;18.44;100.00;101074.75;4998517;28;20276;-55
2022/11/01 08:00:32;;;;;;;6.35;1.80;;;;;;;18.59;100.00;101105.88;4985280;28;20098;-55
2022/11/01 08:03:02;;;;;;;20.70;2.10;;;;;;;18.32;100.00;101092.94;4999830;28;20034;-52
2022/11/01 08:05:28;;;;;;;12.03;2.37;;;;;;;18.68;100.00;101074.63;4998880;28;20273;-57
2022/11/01 08:07:53;;;;;;;10.73;1.85;;;;;;;18.59;100.00;101097.75;5003606;28;20019;-53
2022/11/01 08:10:19;;;;;;;7.55;1.70;;;;;;;18.56;100.00;101119.91;5001437;28;20102;-53
2022/11/01 08:12:45;;;;;;;22.58;2.35;;;;;;;18.75;100.00;101115.94;4999475;28;20039;-51
2022/11/01 08:15:10;;;;;;;13.13;2.43;;;;;;;18.86;100.00;101103.41;5003115;28;20113;-51
2022/11/01 08:17:36;;;;;;;8.93;2.03;;;;;;;19.25;100.00;101101.84;4997077;28;20027;-51
2022/11/01 08:20:01;;;;;;;10.67;2.47;;;;;;;19.57;100.00;101125.66;4986800;28;20035;-54
2022/11/01 08:22:27;;;;;;;15.45;2.92;;;;;;;19.52;100.00;101134.56;4987079;28;20050;-50
2022/11/01 08:24:53;;;;;;;8.73;2.35;;;;;;;20.28;100.00;101129.59;4984811;28;20046;-57
2022/11/01 08:27:19;;;;;;;14.98;2.83;;;;;;;20.47;100.00;101144.47;4988866;28;20046;-55
2022/11/01 08:29:44;;;;;;;13.90;2.35;;;;;;;21.00;97.80;101151.28;4986682;28;20039;-53
2022/11/01 08:32:10;;;;;;;10.80;2.03;;;;;;;20.28;100.00;101148.59;4983828;28;20098;-58
2022/11/01 08:34:35;;;;;;;12.57;1.77;;;;;;;19.79;100.00;101144.69;4986309;28;20061;-56
2022/11/01 08:37:01;;;;;;;11.57;1.98;;;;;;;19.39;100.00;101167.44;4987988;28;20069;-56
2022/11/01 08:39:26;;;;;;;10.43;2.07;;;;;;;19.38;100.00;101144.91;4987355;28;20043;-56
2022/11/01 08:41:51;;;;;;;16.70;2.77;;;;;;;20.33;99.94;101190.22;4988313;28;20039;-52
2022/11/01 08:44:18;;;;;;;10.87;2.70;;;;;;;20.39;98.91;101163.13;4983578;28;20045;-56
2022/11/01 08:46:44;;;;;;;18.35;3.17;;;;;;;20.34;99.04;101193.78;4992458;28;20092;-52
2022/11/01 08:49:10;;;;;;;15.30;4.03;;;;;;;20.09;99.52;101151.66;4987186;28;20063;-55
2022/11/01 08:51:36;;;;;;;8.57;2.25;;;;;;;20.97;94.17;101187.94;4985882;28;20035;-55
2022/11/01 08:54:01;;;;;;;9.35;2.00;;;;;;;21.13;92.43;101171.78;4984007;28;20132;-55
2022/11/01 08:56:27;;;;;;;13.30;2.70;;;;;;;21.43;90.88;101184.00;4983216;28;20034;-56
2022/11/01 08:58:54;;;;;;;11.02;2.42;;;;;;;21.26;92.72;101171.38;4990065;28;20036;-55
2022/11/01 09:01:22;;;;;;;14.73;2.37;;;;;;;21.46;90.18;101194.38;4984330;28;20054;-55
2022/11/01 09:03:48;;;;;;;12.90;2.67;;;;;;;21.41;90.33;101172.56;4984218;28;20050;-57
2022/11/01 09:06:13;;;;;;;19.73;2.70;;;;;;;21.86;88.76;101179.41;4987360;28;20036;-53
2022/11/01 09:08:39;;;;;;;12.10;2.20;;;;;;;21.41;89.14;101169.81;4987047;28;20038;-52
2022/11/01 09:11:05;;;;;;;22.75;3.72;;;;;;;21.09;90.86;101206.00;4986686;28;20090;-55
2022/11/01 09:13:31;;;;;;;13.02;2.50;;;;;;;21.64;88.04;101182.25;4985735;28;20072;-52
2022/11/01 09:15:57;;;;;;;15.90;2.30;;;;;;;20.84;91.76;101191.09;4988056;28;20042;-54
2022/11/01 09:18:22;;;;;;;15.00;2.83;;;;;;;21.45;89.47;101193.53;4996528;28;20026;-57
2022/11/01 09:20:55;;;;;;;11.13;2.10;;;;;;;21.91;86.28;101203.97;4997830;28;20123;-53
2022/11/01 09:23:21;;;;;;;19.10;2.57;;;;;;;21.49;87.01;101218.34;4994197;28;20035;-56
2022/11/01 09:25:47;;;;;;;9.20;2.25;;;;;;;22.18;85.37;101218.53;4998136;28;20030;-54
2022/11/01 09:28:12;;;;;;;15.95;2.65;;;;;;;22.23;83.91;101217.75;5002677;28;20049;-55
2022/11/01 09:30:38;;;;;;;13.15;2.75;;;;;;;21.98;85.49;101192.00;4999294;28;20038;-56
2022/11/01 09:33:04;;;;;;;19.25;3.75;;;;;;;22.86;82.25;101217.72;4992531;28;20030;-54
2022/11/01 09:35:30;;;;;;;;;;;;;;;22.64;80.41;101228.84;4997773;28;20042;-55
2022/11/01 09:37:59;;;;;;;12.90;2.23;;;;;;;22.90;79.57;101221.53;4993428;28;19925;-52
2022/11/01 09:40:32;;;;;;;17.07;2.67;;;;;;;22.96;79.36;101255.09;4993184;28;20072;-58
2022/11/01 09:42:58;;;;;;;18.40;3.30;;;;;;;23.01;78.29;101227.81;5002900;28;20038;-56
2022/11/01 09:45:25;;;;;;;;;;;;;;;22.98;77.97;101252.09;4990183;28;20067;-57
2022/11/01 09:47:54;;;;;;;12.00;2.40;;;;;;;23.46;75.98;101238.25;5000998;28;19918;-57
2022/11/01 09:50:33;;;;;;;10.97;1.90;;;;;;;23.40;76.61;101237.44;4997836;28;20053;-56
2022/11/01 09:53:02;;;;;;;14.50;2.30;;;;;;;23.17;77.43;101245.03;4994414;28;20041;-58
2022/11/01 09:55:53;;;;;;;14.47;2.23;;;;;;;23.65;74.21;101259.56;4997554;28;20032;-56
2022/11/01 09:58:37;;;;;;;12.83;3.00;;;;;;;23.83;74.33;101283.56;4981425;28;20027;-56
2022/11/01 10:01:21;;;;;;;22.60;2.93;;;;;;;24.27;73.35;101284.88;4984851;28;20098;-59
2022/11/01 10:04:25;;;;;;;10.37;2.03;;;;;;;23.65;74.49;101286.84;4990103;28;20030;-55
2022/11/01 10:07:03;;;;;;;15.37;2.30;;;;;;;24.04;72.79;101289.03;4988266;28;20035;-58
2022/11/01 10:09:58;;;;;;;15.20;2.30;;;;;;;23.52;75.67;101299.13;4990377;28;20413;-58
2022/11/01 10:12:43;;;;;;;20.00;2.20;;;;;;;23.14;75.32;101337.50;4991035;28;20045;-58
2022/11/01 10:15:47;;;;;;;18.93;2.30;;;;;;;23.90;72.65;101300.50;4995050;28;20098;-54
2022/11/01 10:18:22;;;;;;;8.00;2.13;;;;;;;24.90;70.86;101296.41;4964494;28;20066;-56
2022/11/01 10:20:47;;;;;;;10.90;1.70;;;;;;;25.58;67.24;101319.53;4984918;28;20031;-58
2022/11/01 10:23:16;;;;;;;12.02;2.78;;;;;;;25.33;68.55;101302.16;4987527;28;20039;-58
2022/11/01 10:25:50;;;;;;;15.67;2.73;;;;;;;26.01;66.61;101304.38;4996058;28;20042;-54
2022/11/01 10:28:44;;;;;;;13.07;2.63;;;;;;;26.10;66.06;101302.66;4995462;28;20042;-57
2022/11/01 10:31:23;;;;;;;14.27;3.40;;;;;;;25.66;65.00;101301.69;4997593;28;20038;-55
2022/11/01 10:34:01;;;;;;;13.43;2.27;;;;;;;25.77;64.43;101305.97;4991312;28;20086;-54
2022/11/01 10:36:36;;;;;;;11.40;1.97;;;;;;;25.14;66.27;101293.81;5010903;28;20026;-58
2022/11/01 10:39:38;;;;;;;18.10;3.00;;;;;;;25.19;65.40;101320.34;4997780;28;20049;-57
2022/11/01 10:42:11;;;;;;;17.23;2.80;;;;;;;24.88;67.00;101320.50;5000242;28;20055;-56
2022/11/01 10:44:45;;;;;;;9.73;2.10;;;;;;;25.51;65.28;101293.59;4994778;28;20042;-55
2022/11/01 10:47:15;;;;;;;12.60;2.73;;;;;;;25.16;64.70;101342.81;4998836;28;20035;-54
2022/11/01 10:49:48;;;;;;;13.67;2.23;;;;;;;25.01;66.26;101298.00;4997462;28;20086;-54
2022/11/01 10:52:20;;;;;;;14.50;2.37;;;;;;;25.11;65.54;101293.56;5011854;28;20082;-55
2022/11/01 10:54:46;;;;;;;10.47;2.20;;;;;;;24.89;66.89;101287.41;4998238;28;20140;-54
2022/11/01 10:57:56;;;;;;;15.33;2.27;;;;;;;25.63;65.50;101297.59;5004891;28;20046;-59
2022/11/01 11:00:22;;;;;;;13.67;2.30;;;;;;;25.85;64.68;101296.31;5009596;28;20112;-57
2022/11/01 11:02:55;;;;;;;13.67;2.77;;;;;;;25.59;63.17;101314.88;5014476;28;20033;-55
2022/11/01 11:05:23;;;;;;;12.67;2.20;;;;;;;25.68;63.19;101284.97;5013992;28;20042;-54
2022/11/01 11:07:49;;;;;;;14.70;2.13;;;;;;;25.30;63.00;101285.50;5007389;28;20054;-55
2022/11/01 11:10:25;;;;;;;6.80;1.77;;;;;;;25.99;64.88;101309.34;5003711;28;20049;-54
2022/11/01 11:13:04;;;;;;;7.65;2.38;;;;;;;25.79;63.61;101316.63;5010164;28;20038;-54
2022/11/01 11:15:36;;;;;;;13.97;2.10;;;;;;;26.32;64.70;101287.66;5000937;28;20113;-56
2022/11/01 11:18:06;;;;;;;12.63;2.80;;;;;;;27.19;61.04;101287.63;5016169;28;20060;-54
2022/11/01 11:20:33;;;;;;;8.17;1.87;;;;;;;26.87;58.86;101322.94;5007620;28;20083;-55
2022/11/01 11:23:01;;;;;;;9.77;2.00;;;;;;;26.61;60.58;101314.19;5000064;28;20066;-54
2022/11/01 11:25:35;;;;;;;15.73;2.23;;;;;;;25.94;60.51;101304.72;5003623;28;20070;-56
2022/11/01 11:28:02;;;;;;;18.93;2.73;;;;;;;25.88;61.29;101342.31;5001367;28;20058;-56
2022/11/01 11:30:31;;;;;;;12.43;2.07;;;;;;;26.13;60.01;101301.25;5009228;28;20090;-56
2022/11/01 11:32:58;;;;;;;10.70;1.80;;;;;;;26.69;59.17;101301.75;5008986;28;20030;-56
2022/11/01 11:35:27;;;;;;;9.90;2.33;;;;;;;27.76;57.57;101315.00;5014883;28;20040;-58
2022/11/01 11:37:56;;;;;;;13.13;2.57;;;;;;;27.24;56.90;101317.75;5002918;28;20046;-56